createdAt,value
2017-10-23T00:01:19.542Z,1.60
2017-10-23T00:03:46.543Z,1.57
2017-10-23T00:06:12.854Z,1.73
2017-10-23T00:08:46.165Z,1.70
2017-10-23T00:11:12.509Z,2.00
2017-10-23T00:13:38.837Z,2.57
2017-10-23T00:16:05.198Z,2.40
2017-10-23T00:18:32.282Z,2.70
2017-10-23T00:20:58.571Z,2.70
2017-10-23T00:23:25.035Z,2.30
2017-10-23T00:25:51.354Z,3.17
2017-10-23T00:28:18.369Z,4.20
2017-10-23T00:30:44.689Z,3.33
2017-10-23T00:33:11.029Z,3.40
2017-10-23T00:35:37.365Z,3.00
2017-10-23T00:38:03.789Z,3.20
2017-10-23T00:40:30.138Z,3.47
2017-10-23T00:42:56.466Z,3.93
2017-10-23T00:45:23.608Z,4.10
2017-10-23T00:47:50.023Z,3.57
2017-10-23T00:50:16.378Z,3.97
2017-10-23T00:52:42.787Z,4.57
2017-10-23T00:55:09.217Z,4.07
2017-10-23T00:57:35.553Z,3.67
2017-10-23T01:00:01.888Z,4.20
2017-10-23T01:02:28.327Z,5.03
2017-10-23T01:04:54.653Z,4.13
2017-10-23T01:07:21.045Z,4.40
2017-10-23T01:09:47.350Z,5.00
2017-10-23T01:12:13.989Z,6.10
2017-10-23T01:14:40.347Z,5.43
2017-10-23T01:17:06.756Z,5.73
2017-10-23T01:19:33.139Z,6.63
2017-10-23T01:21:59.563Z,6.77
2017-10-23T01:24:25.985Z,6.97
2017-10-23T01:26:52.376Z,7.90
2017-10-23T01:29:18.750Z,7.27
2017-10-23T01:31:45.106Z,7.67
2017-10-23T01:34:11.480Z,7.47
2017-10-23T01:36:37.876Z,6.93
2017-10-23T01:39:04.216Z,7.40
2017-10-23T01:41:30.532Z,6.57
2017-10-23T01:43:56.887Z,7.50
2017-10-23T01:46:23.256Z,7.50
2017-10-23T01:48:50.376Z,7.17
2017-10-23T01:51:16.672Z,6.80
2017-10-23T01:53:43.008Z,6.60
2017-10-23T01:56:09.775Z,6.90
2017-10-23T01:58:36.313Z,7.33
2017-10-23T02:01:02.613Z,7.87
2017-10-23T02:03:28.953Z,7.40
2017-10-23T02:05:55.299Z,8.23
2017-10-23T02:08:21.787Z,7.00
2017-10-23T02:10:48.267Z,6.67
2017-10-23T02:13:14.638Z,8.33
2017-10-23T02:15:40.970Z,8.07
2017-10-23T02:18:07.260Z,7.83
2017-10-23T02:20:33.589Z,8.13
2017-10-23T02:22:59.919Z,8.30
2017-10-23T02:25:26.241Z,7.17
2017-10-23T02:27:53.479Z,7.20
2017-10-23T02:30:19.861Z,7.70
2017-10-23T02:32:46.958Z,6.80
2017-10-23T02:35:13.238Z,7.70
2017-10-23T02:37:40.461Z,6.70
2017-10-23T02:40:06.912Z,8.57
2017-10-23T02:42:33.234Z,8.00
2017-10-23T02:44:59.642Z,7.80
2017-10-23T02:47:26.791Z,9.30
2017-10-23T02:49:53.110Z,8.30
2017-10-23T02:52:19.387Z,8.10
2017-10-23T02:54:45.715Z,7.90
2017-10-23T02:57:12.023Z,8.10
2017-10-23T02:59:38.300Z,9.13
2017-10-23T03:02:04.589Z,7.23
2017-10-23T03:04:30.913Z,8.67
2017-10-23T03:06:57.504Z,8.40
2017-10-23T03:09:24.556Z,7.50
2017-10-23T03:11:52.162Z,7.60
2017-10-23T03:14:18.486Z,8.30
2017-10-23T03:16:44.839Z,7.17
2017-10-23T03:19:11.171Z,7.57
2017-10-23T03:21:37.677Z,6.93
2017-10-23T03:24:04.037Z,6.63
2017-10-23T03:26:30.509Z,6.83
2017-10-23T03:28:56.973Z,7.17
2017-10-23T03:31:23.566Z,6.77
2017-10-23T03:33:49.946Z,7.67
2017-10-23T03:36:16.374Z,7.87
2017-10-23T03:38:42.814Z,6.70
2017-10-23T03:41:09.132Z,8.20
2017-10-23T03:43:36.412Z,7.10
2017-10-23T03:46:02.823Z,7.17
2017-10-23T03:48:29.210Z,7.23
2017-10-23T03:50:55.602Z,6.47
2017-10-23T03:53:22.900Z,7.87
2017-10-23T03:55:49.197Z,7.50
2017-10-23T03:58:15.537Z,8.97
2017-10-23T04:00:41.964Z,7.30
2017-10-23T04:03:08.334Z,8.33
2017-10-23T04:05:34.700Z,7.10
2017-10-23T04:08:01.033Z,6.97
2017-10-23T04:10:27.416Z,6.50
2017-10-23T04:12:53.713Z,7.03
2017-10-23T04:15:20.865Z,6.70
2017-10-23T04:17:47.293Z,8.77
2017-10-23T04:20:13.671Z,7.20
2017-10-23T04:22:40.768Z,7.23
2017-10-23T04:25:07.183Z,7.03
2017-10-23T04:27:34.355Z,7.97
2017-10-23T04:30:00.696Z,7.67
2017-10-23T04:32:27.074Z,7.17
2017-10-23T04:34:54.164Z,6.47
2017-10-23T04:37:20.532Z,7.80
2017-10-23T04:39:46.912Z,7.70
2017-10-23T04:42:13.269Z,7.70
2017-10-23T04:44:39.720Z,7.83
2017-10-23T04:47:06.037Z,7.93
2017-10-23T04:49:32.458Z,8.20
2017-10-23T04:51:58.794Z,7.47
2017-10-23T04:54:25.225Z,8.10
2017-10-23T04:56:51.657Z,6.50
2017-10-23T04:59:18.030Z,7.60
2017-10-23T05:01:44.525Z,8.90
2017-10-23T05:04:10.905Z,8.30
2017-10-23T05:06:37.271Z,7.47
2017-10-23T05:09:04.373Z,7.97
2017-10-23T05:11:30.665Z,8.20
2017-10-23T05:13:57.011Z,7.93
2017-10-23T05:16:23.438Z,8.27
2017-10-23T05:18:49.807Z,7.57
2017-10-23T05:21:16.105Z,9.07
2017-10-23T05:23:43.317Z,8.73
2017-10-23T05:26:10.500Z,8.00
2017-10-23T05:28:36.864Z,7.60
2017-10-23T05:31:03.234Z,8.37
2017-10-23T05:33:29.608Z,9.03
2017-10-23T05:35:56.010Z,6.87
2017-10-23T05:38:22.316Z,7.50
2017-10-23T05:40:50.161Z,6.90
2017-10-23T05:43:16.454Z,8.30
2017-10-23T05:45:42.901Z,6.57
2017-10-23T05:48:09.245Z,7.60
2017-10-23T05:50:35.581Z,7.10
2017-10-23T05:53:01.875Z,8.57
2017-10-23T05:55:28.263Z,6.97
2017-10-23T05:57:54.637Z,6.97
2017-10-23T06:00:20.984Z,8.47
2017-10-23T06:02:47.365Z,8.40
2017-10-23T06:05:13.757Z,8.37
2017-10-23T06:07:40.178Z,6.83
2017-10-23T06:10:06.577Z,7.70
2017-10-23T06:12:32.947Z,7.80
2017-10-23T06:14:59.276Z,7.90
2017-10-23T06:17:25.569Z,7.00
2017-10-23T06:19:52.660Z,7.70
2017-10-23T06:22:19.032Z,7.83
2017-10-23T06:24:45.376Z,6.17
2017-10-23T06:27:11.782Z,6.03
2017-10-23T06:29:38.190Z,6.83
2017-10-23T06:32:04.514Z,7.40
2017-10-23T06:34:30.842Z,7.00
2017-10-23T06:36:57.230Z,7.10
2017-10-23T06:39:23.612Z,7.30
2017-10-23T06:41:50.049Z,6.63
2017-10-23T06:44:16.349Z,6.63
2017-10-23T06:46:42.736Z,6.57
2017-10-23T06:49:09.118Z,7.17
2017-10-23T06:51:35.559Z,6.90
2017-10-23T06:54:01.915Z,7.43
2017-10-23T06:56:28.362Z,5.90
2017-10-23T06:58:54.709Z,5.70
2017-10-23T07:01:21.049Z,6.50
2017-10-23T07:03:47.458Z,6.03
2017-10-23T07:06:13.809Z,5.57
2017-10-23T07:08:40.223Z,6.40
2017-10-23T07:11:06.653Z,5.00
2017-10-23T07:13:33.099Z,5.90
2017-10-23T07:15:59.471Z,5.67
2017-10-23T07:18:26.606Z,5.67
2017-10-23T07:20:53.014Z,5.40
2017-10-23T07:23:19.347Z,5.00
2017-10-23T07:25:45.701Z,5.00
2017-10-23T07:28:12.129Z,4.73
2017-10-23T07:30:38.520Z,4.50
2017-10-23T07:33:04.849Z,5.30
2017-10-23T07:35:31.180Z,5.40
2017-10-23T07:37:57.476Z,4.13
2017-10-23T07:40:24.723Z,5.00
2017-10-23T07:42:51.822Z,5.73
2017-10-23T07:45:18.236Z,4.00
2017-10-23T07:47:44.739Z,4.97
2017-10-23T07:50:11.934Z,5.33
2017-10-23T07:52:38.328Z,4.07
2017-10-23T07:55:06.417Z,5.63
2017-10-23T07:57:32.793Z,4.80
2017-10-23T07:59:59.311Z,4.80
2017-10-23T08:02:25.736Z,5.20
2017-10-23T08:04:52.058Z,4.60
2017-10-23T08:07:18.465Z,4.90
2017-10-23T08:09:45.540Z,4.27
2017-10-23T08:12:11.816Z,4.20
2017-10-23T08:14:38.252Z,4.93
2017-10-23T08:17:04.645Z,4.40
2017-10-23T08:19:31.025Z,3.97
2017-10-23T08:21:57.424Z,3.80
2017-10-23T08:24:23.979Z,5.30
2017-10-23T08:26:50.302Z,4.33
2017-10-23T08:29:17.420Z,4.30
2017-10-23T08:31:43.746Z,5.17
2017-10-23T08:34:10.130Z,4.80
2017-10-23T08:36:37.409Z,4.90
2017-10-23T08:39:03.778Z,4.70
2017-10-23T08:41:30.109Z,4.67
2017-10-23T08:43:57.404Z,4.23
2017-10-23T08:46:23.740Z,4.30
2017-10-23T08:48:50.089Z,3.90
2017-10-23T08:51:16.447Z,4.23
2017-10-23T08:53:42.735Z,3.90
2017-10-23T08:56:09.111Z,4.50
2017-10-23T08:58:35.447Z,3.60
2017-10-23T09:01:01.917Z,4.03
2017-10-23T09:03:28.957Z,4.10
2017-10-23T09:05:55.445Z,4.17
2017-10-23T09:08:21.841Z,5.07
2017-10-23T09:10:48.292Z,4.90
2017-10-23T09:13:16.343Z,3.50
2017-10-23T09:15:42.861Z,4.93
2017-10-23T09:18:09.350Z,4.23
2017-10-23T09:20:35.697Z,4.37
2017-10-23T09:23:01.994Z,4.63
2017-10-23T09:25:29.138Z,4.30
2017-10-23T09:27:55.536Z,3.40
2017-10-23T09:30:21.879Z,3.27
2017-10-23T09:32:48.342Z,3.43
2017-10-23T09:35:15.561Z,3.73
2017-10-23T09:37:42.226Z,3.33
2017-10-23T09:40:08.566Z,3.20
2017-10-23T09:42:36.815Z,5.23
2017-10-23T09:45:03.356Z,3.20
2017-10-23T09:47:29.771Z,4.50
2017-10-23T09:49:57.258Z,4.23
2017-10-23T09:52:23.682Z,3.77
2017-10-23T09:54:50.217Z,3.60
2017-10-23T09:57:16.611Z,4.20
2017-10-23T09:59:43.014Z,3.57
2017-10-23T10:02:10.239Z,5.37
2017-10-23T10:04:36.621Z,4.57
2017-10-23T10:07:03.834Z,5.33
2017-10-23T10:09:30.169Z,5.10
2017-10-23T10:11:56.565Z,4.87
2017-10-23T10:14:23.413Z,4.30
2017-10-23T10:16:49.761Z,5.67
2017-10-23T10:19:16.865Z,5.33
2017-10-23T10:21:43.251Z,5.53
2017-10-23T10:24:09.641Z,4.87
2017-10-23T10:26:36.017Z,4.17
2017-10-23T10:29:02.367Z,4.70
2017-10-23T10:31:28.835Z,4.70
2017-10-23T10:33:55.212Z,5.63
2017-10-23T10:36:22.385Z,4.67
2017-10-23T10:38:49.487Z,3.87
2017-10-23T10:41:16.645Z,4.30
2017-10-23T10:43:43.086Z,4.80
2017-10-23T10:46:09.515Z,3.90
2017-10-23T10:48:36.631Z,3.67
2017-10-23T10:51:03.014Z,4.30
2017-10-23T10:53:29.365Z,3.83
2017-10-23T10:55:56.593Z,3.37
2017-10-23T10:58:22.990Z,3.77
2017-10-23T11:00:49.411Z,4.23
2017-10-23T11:03:16.622Z,3.50
2017-10-23T11:05:43.720Z,4.23
2017-10-23T11:08:10.056Z,4.83
2017-10-23T11:10:36.362Z,4.47
2017-10-23T11:13:02.697Z,5.93
2017-10-23T11:15:29.062Z,5.40
2017-10-23T11:17:56.274Z,8.33
2017-10-23T11:20:22.679Z,6.23
2017-10-23T11:22:48.999Z,7.60
2017-10-23T11:25:15.333Z,6.03
2017-10-23T11:27:41.813Z,6.50
2017-10-23T11:30:09.157Z,8.50
2017-10-23T11:32:35.517Z,5.70
2017-10-23T11:35:01.790Z,6.47
2017-10-23T11:37:28.220Z,5.90
2017-10-23T11:39:54.657Z,5.90
2017-10-23T11:42:21.052Z,6.10
2017-10-23T11:44:47.348Z,5.53
2017-10-23T11:47:13.720Z,5.27
2017-10-23T11:49:40.087Z,5.10
2017-10-23T11:52:06.452Z,5.40
2017-10-23T11:54:32.824Z,4.90
2017-10-23T11:56:59.326Z,4.80
2017-10-23T11:59:25.691Z,5.07
2017-10-23T12:01:52.026Z,4.63
2017-10-23T12:04:18.500Z,5.03
2017-10-23T12:06:45.159Z,4.60
2017-10-23T12:09:11.538Z,4.10
2017-10-23T12:11:37.970Z,3.47
2017-10-23T12:14:04.367Z,3.67
2017-10-23T12:16:30.759Z,3.77
2017-10-23T12:18:58.724Z,2.80
2017-10-23T12:21:25.204Z,3.10
2017-10-23T12:23:51.697Z,4.17
2017-10-23T12:26:18.973Z,2.97
2017-10-23T12:28:45.568Z,3.10
2017-10-23T12:31:11.960Z,2.70
2017-10-23T12:33:38.391Z,3.47
2017-10-23T12:36:04.719Z,3.93
2017-10-23T12:38:31.021Z,2.70
2017-10-23T12:40:57.431Z,2.60
2017-10-23T12:43:23.746Z,3.70
2017-10-23T12:45:50.077Z,2.33
2017-10-23T12:48:16.418Z,3.10
2017-10-23T12:50:42.888Z,4.03
2017-10-23T12:53:09.350Z,4.07
2017-10-23T12:55:35.962Z,4.63
2017-10-23T12:58:03.008Z,4.53
2017-10-23T13:00:30.085Z,3.90
2017-10-23T13:02:56.454Z,4.60
2017-10-23T13:05:22.847Z,6.57
2017-10-23T13:07:49.197Z,5.93
2017-10-23T13:10:15.693Z,5.90
2017-10-23T13:12:42.096Z,5.10
2017-10-23T13:15:08.457Z,7.30
2017-10-23T13:17:35.623Z,7.53
2017-10-23T13:20:02.033Z,6.57
2017-10-23T13:22:28.524Z,6.53
2017-10-23T13:24:54.980Z,6.67
2017-10-23T13:27:21.403Z,7.27
2017-10-23T13:29:47.994Z,7.37
2017-10-23T13:32:14.469Z,7.63
2017-10-23T13:34:40.835Z,8.00
2017-10-23T13:37:15.015Z,8.30
2017-10-23T13:39:41.412Z,6.93
2017-10-23T13:42:07.809Z,7.33
2017-10-23T13:44:35.061Z,7.00
2017-10-23T13:47:02.187Z,7.27
2017-10-23T13:49:28.597Z,7.20
2017-10-23T13:51:54.978Z,7.80
2017-10-23T13:54:21.550Z,7.17
2017-10-23T13:56:47.965Z,7.17
2017-10-23T13:59:16.020Z,8.53
2017-10-23T14:01:43.179Z,8.00
2017-10-23T14:04:10.333Z,7.53
2017-10-23T14:06:37.545Z,8.60
2017-10-23T14:09:04.971Z,9.40
2017-10-23T14:11:31.508Z,8.90
2017-10-23T14:13:57.906Z,9.87
2017-10-23T14:16:24.362Z,8.73
2017-10-23T14:18:52.038Z,8.13
2017-10-23T14:21:18.432Z,8.50
2017-10-23T14:23:45.531Z,7.87
2017-10-23T14:26:11.870Z,8.20
2017-10-23T14:28:38.346Z,9.10
2017-10-23T14:31:05.323Z,10.30
2017-10-23T14:33:31.855Z,9.97
2017-10-23T14:35:58.300Z,10.83
2017-10-23T14:38:24.733Z,11.07
2017-10-23T14:40:51.102Z,10.77
2017-10-23T14:43:17.500Z,10.23
2017-10-23T14:45:43.818Z,10.57
2017-10-23T14:48:10.263Z,11.40
2017-10-23T14:50:36.684Z,9.87
2017-10-23T14:53:03.115Z,10.90
2017-10-23T14:55:29.518Z,10.67
2017-10-23T14:57:56.893Z,9.90
2017-10-23T15:00:24.132Z,9.27
2017-10-23T15:02:51.406Z,11.30
2017-10-23T15:05:17.855Z,10.23
2017-10-23T15:07:44.243Z,10.20
2017-10-23T15:10:10.670Z,9.77
2017-10-23T15:12:37.005Z,9.60
2017-10-23T15:15:03.331Z,10.77
2017-10-23T15:17:29.820Z,10.23
2017-10-23T15:19:57.869Z,9.10
2017-10-23T15:22:25.209Z,8.80
2017-10-23T15:24:52.813Z,8.60
2017-10-23T15:27:19.597Z,9.83
2017-10-23T15:29:45.915Z,9.53
2017-10-23T15:32:12.325Z,8.83
2017-10-23T15:34:38.927Z,8.90
2017-10-23T15:37:06.049Z,8.40
2017-10-23T15:39:32.439Z,8.57
2017-10-23T15:41:58.913Z,8.80
2017-10-23T15:44:25.287Z,7.77
2017-10-23T15:46:51.739Z,8.00
2017-10-23T15:49:18.266Z,9.13
2017-10-23T15:51:44.669Z,7.27
2017-10-23T15:54:11.866Z,8.17
2017-10-23T15:56:38.265Z,7.27
2017-10-23T15:59:05.467Z,7.93
2017-10-23T16:01:32.744Z,8.33
2017-10-23T16:03:59.101Z,7.13
2017-10-23T16:06:26.351Z,6.83
2017-10-23T16:08:54.379Z,6.40
2017-10-23T16:11:20.823Z,6.30
2017-10-23T16:13:47.218Z,6.40
2017-10-23T16:16:13.529Z,6.93
2017-10-23T16:18:39.932Z,6.80
2017-10-23T16:21:06.278Z,5.80
2017-10-23T16:23:34.181Z,5.00
2017-10-23T16:26:00.676Z,6.40
2017-10-23T16:28:27.089Z,6.33
2017-10-23T16:30:53.765Z,6.03
2017-10-23T16:33:20.875Z,6.33
2017-10-23T16:35:47.278Z,6.07
2017-10-23T16:38:13.587Z,6.40
2017-10-23T16:40:40.033Z,6.50
2017-10-23T16:43:06.356Z,5.53
2017-10-23T16:45:32.828Z,7.00
2017-10-23T16:47:59.157Z,5.97
2017-10-23T16:50:25.537Z,6.50
2017-10-23T16:52:52.649Z,5.87
2017-10-23T16:55:18.973Z,7.77
2017-10-23T16:57:45.564Z,6.93
2017-10-23T17:00:12.055Z,6.30
2017-10-23T17:02:38.507Z,5.03
2017-10-23T17:05:04.987Z,7.20
2017-10-23T17:07:31.485Z,6.43
2017-10-23T17:09:58.608Z,7.43
2017-10-23T17:12:25.248Z,6.23
2017-10-23T17:14:52.478Z,7.17
2017-10-23T17:17:19.590Z,7.20
2017-10-23T17:19:46.101Z,7.67
2017-10-23T17:22:13.267Z,6.00
2017-10-23T17:24:41.045Z,7.00
2017-10-23T17:27:07.521Z,6.40
2017-10-23T17:29:33.893Z,6.60
2017-10-23T17:32:01.065Z,7.20
2017-10-23T17:34:27.478Z,7.17
2017-10-23T17:36:53.861Z,6.53
2017-10-23T17:39:20.201Z,7.10
2017-10-23T17:41:46.570Z,6.10
2017-10-23T17:44:13.660Z,6.93
2017-10-23T17:46:40.149Z,6.70
2017-10-23T17:49:07.290Z,6.73
2017-10-23T17:51:33.816Z,6.80
2017-10-23T17:54:00.428Z,6.93
2017-10-23T17:56:26.812Z,7.30
2017-10-23T17:58:53.193Z,6.10
2017-10-23T18:01:19.582Z,7.53
2017-10-23T18:03:46.745Z,7.10
2017-10-23T18:06:13.511Z,5.53
2017-10-23T18:08:39.871Z,5.67
2017-10-23T18:11:06.508Z,7.23
2017-10-23T18:13:33.045Z,6.70
2017-10-23T18:15:59.553Z,6.70
2017-10-23T18:18:26.007Z,6.53
2017-10-23T18:20:52.453Z,6.90
2017-10-23T18:23:18.860Z,6.30
2017-10-23T18:25:45.248Z,6.40
2017-10-23T18:28:12.445Z,6.90
2017-10-23T18:30:38.804Z,7.07
2017-10-23T18:33:05.240Z,6.30
2017-10-23T18:35:31.581Z,6.63
2017-10-23T18:37:58.008Z,6.37
2017-10-23T18:40:24.437Z,7.37
2017-10-23T18:42:51.200Z,7.87
2017-10-23T18:45:18.436Z,7.47
2017-10-23T18:47:45.760Z,6.60
2017-10-23T18:50:12.098Z,7.37
2017-10-23T18:52:38.436Z,7.27
2017-10-23T18:55:05.804Z,7.10
2017-10-23T18:57:32.311Z,6.50
2017-10-23T18:59:58.802Z,8.17
2017-10-23T19:02:25.925Z,8.23
2017-10-23T19:04:52.555Z,8.10
2017-10-23T19:07:18.889Z,8.63
2017-10-23T19:09:45.291Z,8.73
2017-10-23T19:12:12.209Z,8.77
2017-10-23T19:14:45.721Z,9.30
2017-10-23T19:17:12.138Z,8.73
2017-10-23T19:19:39.228Z,8.00
2017-10-23T19:22:06.568Z,7.90
2017-10-23T19:24:32.968Z,8.10
2017-10-23T19:27:00.099Z,8.47
2017-10-23T19:29:26.572Z,8.70
2017-10-23T19:31:52.982Z,8.20
2017-10-23T19:34:19.499Z,8.50
2017-10-23T19:36:46.745Z,8.43
2017-10-23T19:39:13.245Z,7.57
2017-10-23T19:41:39.686Z,9.00
2017-10-23T19:44:06.306Z,7.43
2017-10-23T19:46:33.266Z,8.10
2017-10-23T19:48:59.895Z,7.77
2017-10-23T19:51:26.226Z,7.30
2017-10-23T19:53:52.696Z,7.73
2017-10-23T19:56:18.983Z,8.17
2017-10-23T19:58:45.330Z,7.97
2017-10-23T20:01:11.698Z,7.00
2017-10-23T20:03:38.232Z,7.73
2017-10-23T20:06:04.679Z,8.03
2017-10-23T20:08:31.089Z,8.50
2017-10-23T20:10:57.390Z,7.50
2017-10-23T20:13:23.696Z,8.10
2017-10-23T20:15:50.029Z,7.70
2017-10-23T20:18:17.099Z,9.03
2017-10-23T20:20:43.469Z,9.23
2017-10-23T20:23:09.842Z,7.93
2017-10-23T20:25:36.945Z,8.30
2017-10-23T20:28:03.245Z,8.37
2017-10-23T20:30:29.543Z,8.00
2017-10-23T20:32:56.570Z,8.00
2017-10-23T20:35:22.911Z,7.50
2017-10-23T20:37:49.289Z,7.57
2017-10-23T20:40:15.614Z,7.57
2017-10-23T20:42:42.946Z,7.80
2017-10-23T20:45:11.126Z,8.43
2017-10-23T20:47:38.395Z,6.77
2017-10-23T20:50:05.376Z,7.50
2017-10-23T20:52:31.797Z,6.50
2017-10-23T20:54:59.080Z,7.70
2017-10-23T20:57:25.506Z,7.20
2017-10-23T20:59:52.611Z,7.23
2017-10-23T21:02:18.936Z,6.47
2017-10-23T21:04:45.237Z,7.40
2017-10-23T21:07:11.579Z,7.33
2017-10-23T21:09:37.994Z,7.50
2017-10-23T21:12:04.363Z,8.07
2017-10-23T21:14:30.681Z,7.63
2017-10-23T21:16:56.991Z,7.87
2017-10-23T21:19:23.281Z,8.33
2017-10-23T21:21:50.470Z,7.97
2017-10-23T21:24:16.896Z,7.60
2017-10-23T21:26:43.230Z,8.67
2017-10-23T21:29:09.608Z,8.00
2017-10-23T21:31:35.925Z,8.17
2017-10-23T21:34:03.077Z,9.00
2017-10-23T21:36:29.459Z,9.67
2017-10-23T21:38:55.839Z,8.90
2017-10-23T21:41:22.170Z,9.60
2017-10-23T21:43:48.465Z,8.17
2017-10-23T21:46:14.803Z,9.40
2017-10-23T21:48:41.161Z,8.90
2017-10-23T21:51:08.274Z,10.40
2017-10-23T21:53:34.682Z,9.23
2017-10-23T21:56:01.010Z,9.30
2017-10-23T21:58:27.413Z,8.43
2017-10-23T22:00:53.790Z,8.17
2017-10-23T22:03:20.166Z,10.23
2017-10-23T22:05:47.441Z,9.57
2017-10-23T22:08:13.840Z,8.83
2017-10-23T22:10:40.169Z,10.03
2017-10-23T22:13:06.654Z,10.00
2017-10-23T22:15:33.024Z,11.50
2017-10-23T22:17:59.472Z,10.80
2017-10-23T22:20:25.856Z,10.13
2017-10-23T22:22:52.269Z,9.77
2017-10-23T22:25:18.752Z,11.77
2017-10-23T22:27:45.115Z,10.63
2017-10-23T22:30:12.182Z,10.63
2017-10-23T22:32:38.551Z,10.17
2017-10-23T22:35:04.879Z,10.00
2017-10-23T22:37:31.170Z,10.80
2017-10-23T22:39:57.533Z,11.00
2017-10-23T22:42:23.903Z,11.50
2017-10-23T22:44:50.195Z,11.63
2017-10-23T22:47:16.551Z,11.73
2017-10-23T22:49:42.987Z,10.90
2017-10-23T22:52:09.317Z,12.80
2017-10-23T22:54:35.615Z,11.07
2017-10-23T22:57:02.083Z,10.07
2017-10-23T22:59:29.132Z,11.17
2017-10-23T23:01:55.435Z,10.40
2017-10-23T23:04:21.795Z,10.50
2017-10-23T23:06:48.132Z,10.60
2017-10-23T23:09:14.418Z,10.83
2017-10-23T23:11:41.280Z,10.80
2017-10-23T23:14:07.768Z,10.53
2017-10-23T23:16:34.809Z,9.90
2017-10-23T23:19:01.183Z,9.80
2017-10-23T23:21:27.525Z,9.90
2017-10-23T23:23:53.874Z,10.77
2017-10-23T23:26:20.248Z,9.67
2017-10-23T23:28:46.606Z,9.80
2017-10-23T23:31:12.924Z,10.30
2017-10-23T23:33:39.236Z,9.87
2017-10-23T23:36:13.225Z,10.17
2017-10-23T23:38:40.278Z,9.60
2017-10-23T23:41:07.343Z,9.93
2017-10-23T23:43:34.389Z,10.77
2017-10-23T23:46:01.400Z,9.03
2017-10-23T23:48:28.450Z,8.70
2017-10-23T23:50:54.715Z,10.43
2017-10-23T23:53:21.031Z,10.13
2017-10-23T23:55:48.045Z,10.00
2017-10-23T23:58:14.351Z,9.50
